Musselfork, Missouri
Current Conditions -  °F | °C
As of 9:35 PM on Friday 19 Dec 2014 (Local Time) from KVER Reporting Station
Haze Haze  
Wind Chill: 36°   Ceiling: 1200
Heat Index: 36°   Visibility: 5mi
Dew Point: 35°   Wind: 3mph
Humidity: 98%   Direction: 110°ESE
Pressure: 30.23"   Gusts: NA
Location:  39.4953°N, 92.9281°W
Report Text: KVER 200335Z AUTO 11003KT 5SM BR OVC012 02/02 A3023 RMK AO2 T00200017
Loading
Personal Weather Stations






























Interactive Weather Map New forecast layout! Learn more

10-Day Weather Forecast

Advertisements
Track Severe Weather on mobile